createdAt,value
2022-12-03T00:04:02.854Z,23.95
2022-12-03T00:09:05.731Z,23.88
2022-12-03T00:14:08.419Z,23.88
2022-12-03T00:19:11.169Z,24.00
2022-12-03T00:24:13.647Z,24.30
2022-12-03T00:29:16.113Z,25.15
2022-12-03T00:34:18.879Z,23.33
2022-12-03T00:39:21.349Z,25.23
2022-12-03T00:44:23.901Z,26.42
2022-12-03T00:49:26.435Z,24.67
2022-12-03T00:54:32.068Z,25.17
2022-12-03T00:59:34.931Z,25.10
2022-12-03T01:04:37.732Z,24.92
2022-12-03T01:09:42.973Z,25.13
2022-12-03T01:14:45.616Z,25.05
2022-12-03T01:19:48.736Z,25.58
2022-12-03T01:24:51.981Z,25.05
2022-12-03T01:29:54.666Z,24.60
2022-12-03T01:34:57.449Z,25.38
2022-12-03T01:40:00.069Z,24.50
2022-12-03T01:45:06.502Z,25.75
2022-12-03T01:50:16.025Z,24.35
2022-12-03T01:55:19.904Z,23.77
2022-12-03T02:00:23.712Z,23.23
2022-12-03T02:05:30.960Z,24.98
2022-12-03T02:10:35.031Z,23.00
2022-12-03T02:15:40.916Z,24.42
2022-12-03T02:20:58.332Z,24.23
2022-12-03T02:26:00.848Z,24.52
2022-12-03T02:31:05.443Z,24.08
2022-12-03T02:36:08.411Z,24.55
2022-12-03T02:41:33.571Z,23.83
2022-12-03T02:46:36.378Z,23.27
2022-12-03T02:51:39.068Z,24.30
2022-12-03T02:56:41.854Z,24.33
2022-12-03T03:01:44.402Z,25.13
2022-12-03T03:06:47.008Z,24.10
2022-12-03T03:11:49.484Z,24.02
2022-12-03T03:16:56.350Z,23.58
2022-12-03T03:21:59.113Z,25.15
2022-12-03T03:27:01.758Z,24.27
2022-12-03T03:32:04.667Z,25.67
2022-12-03T03:37:07.242Z,24.52
2022-12-03T03:42:09.791Z,24.40
2022-12-03T03:47:12.511Z,25.77
2022-12-03T03:52:15.623Z,23.98
2022-12-03T03:57:18.180Z,24.30
2022-12-03T04:02:21.559Z,23.75
2022-12-03T04:07:24.426Z,24.75
2022-12-03T04:12:45.791Z,23.85
2022-12-03T04:18:11.444Z,23.35
2022-12-03T04:23:16.958Z,23.90
2022-12-03T04:28:37.838Z,24.27
2022-12-03T04:33:58.881Z,24.73
2022-12-03T04:39:01.391Z,23.73
2022-12-03T04:44:22.633Z,24.63
2022-12-03T04:49:25.128Z,24.55
2022-12-03T04:54:28.242Z,24.67
2022-12-03T04:59:30.782Z,25.63
2022-12-03T05:04:33.858Z,25.58
2022-12-03T05:09:36.363Z,25.02
2022-12-03T05:14:38.885Z,24.83
2022-12-03T05:20:00.187Z,25.60
2022-12-03T05:25:03.081Z,24.63
2022-12-03T05:30:05.976Z,24.85
2022-12-03T05:35:09.590Z,25.25
2022-12-03T05:40:12.632Z,25.90
2022-12-03T05:45:15.241Z,26.20
2022-12-03T05:50:17.887Z,24.80
2022-12-03T05:55:20.828Z,26.75
2022-12-03T06:00:27.890Z,27.08
2022-12-03T06:05:30.469Z,25.38
2022-12-03T06:10:33.014Z,25.08
2022-12-03T06:15:40.413Z,25.27
2022-12-03T06:20:46.416Z,25.67
2022-12-03T06:25:49.007Z,25.83
2022-12-03T06:30:51.591Z,26.77
2022-12-03T06:35:54.096Z,26.67
2022-12-03T06:40:56.692Z,26.63
2022-12-03T06:45:59.288Z,27.65
2022-12-03T06:51:01.856Z,26.15
2022-12-03T06:56:04.490Z,27.75
2022-12-03T07:01:08.509Z,28.42
2022-12-03T07:06:11.294Z,27.20
2022-12-03T07:11:31.995Z,28.00
2022-12-03T07:16:35.767Z,27.10
2022-12-03T07:21:39.202Z,27.90
2022-12-03T07:26:41.846Z,27.80
2022-12-03T07:31:44.482Z,27.13
2022-12-03T07:36:47.053Z,27.35
2022-12-03T07:41:49.871Z,26.17
2022-12-03T07:46:52.500Z,28.60
2022-12-03T07:51:57.021Z,29.02
2022-12-03T07:57:01.671Z,27.10
2022-12-03T08:02:04.777Z,26.40
2022-12-03T08:07:07.329Z,37.47
2022-12-03T08:12:17.498Z,27.98
2022-12-03T08:17:21.782Z,27.17
2022-12-03T08:22:34.029Z,27.85
2022-12-03T08:27:36.537Z,26.60
2022-12-03T08:32:39.235Z,28.05
2022-12-03T08:37:43.549Z,25.85
2022-12-03T08:42:46.318Z,27.35
2022-12-03T08:47:50.762Z,26.83
2022-12-03T08:52:55.110Z,26.48
2022-12-03T08:57:58.580Z,27.25
2022-12-03T09:03:01.380Z,27.02
2022-12-03T09:08:04.246Z,26.15
2022-12-03T09:13:07.539Z,27.55
2022-12-03T09:18:10.642Z,26.77
2022-12-03T09:23:13.725Z,26.40
2022-12-03T09:28:16.464Z,27.02
2022-12-03T09:33:19.137Z,36.83
2022-12-03T09:38:21.976Z,26.45
2022-12-03T09:43:33.460Z,27.92
2022-12-03T09:48:48.161Z,27.52
2022-12-03T09:53:50.791Z,28.33
2022-12-03T09:58:56.053Z,27.95
2022-12-03T10:03:58.921Z,27.60
2022-12-03T10:09:01.769Z,27.05
2022-12-03T10:14:04.711Z,27.33
2022-12-03T10:19:09.848Z,26.35
2022-12-03T10:24:26.124Z,31.52
2022-12-03T10:29:34.079Z,25.90
2022-12-03T10:34:40.694Z,25.35
2022-12-03T10:39:55.941Z,25.17
2022-12-03T10:45:16.103Z,24.73
2022-12-03T10:50:19.737Z,23.63
2022-12-03T10:55:22.454Z,24.33
2022-12-03T11:00:25.260Z,24.33
2022-12-03T11:05:28.578Z,23.70
2022-12-03T11:10:31.180Z,24.55
2022-12-03T11:15:44.598Z,24.50
2022-12-03T11:20:47.205Z,24.48
2022-12-03T11:25:50.897Z,23.27
2022-12-03T11:30:53.850Z,23.92
2022-12-03T11:36:05.831Z,24.58
2022-12-03T11:41:19.325Z,24.13
2022-12-03T11:46:37.012Z,24.10
2022-12-03T11:51:44.185Z,23.90
2022-12-03T11:56:49.166Z,23.90
2022-12-03T12:01:51.764Z,23.80
2022-12-03T12:06:54.494Z,23.40
2022-12-03T12:12:17.157Z,24.48
2022-12-03T12:17:36.495Z,22.90
2022-12-03T12:22:39.564Z,23.00
2022-12-03T12:27:51.133Z,24.30
2022-12-03T12:32:57.989Z,22.83
2022-12-03T12:38:11.482Z,23.23
2022-12-03T12:43:36.025Z,22.52
2022-12-03T12:48:39.196Z,27.58
2022-12-03T12:53:45.336Z,27.27
2022-12-03T12:58:48.035Z,25.48
2022-12-03T13:03:51.581Z,21.48
2022-12-03T13:08:57.170Z,23.30
2022-12-03T13:14:01.132Z,23.88
2022-12-03T13:19:14.038Z,23.13
2022-12-03T13:29:19.865Z,23.20
2022-12-03T13:34:23.977Z,24.08
2022-12-03T13:39:36.907Z,24.08
2022-12-03T13:44:46.618Z,22.38
2022-12-03T13:49:53.874Z,21.45
2022-12-03T13:54:58.390Z,22.05
2022-12-03T14:00:00.888Z,22.08
2022-12-03T14:05:03.595Z,23.35
2022-12-03T14:10:07.477Z,22.02
2022-12-03T14:15:13.188Z,22.00
2022-12-03T14:20:16.069Z,21.45
2022-12-03T14:25:18.789Z,22.60
2022-12-03T14:30:22.297Z,23.73
2022-12-03T14:35:24.965Z,21.30
2022-12-03T14:40:27.717Z,20.88
2022-12-03T14:45:30.762Z,20.58
2022-12-03T14:50:33.569Z,19.67
2022-12-03T14:55:36.087Z,20.40
2022-12-03T15:00:38.624Z,20.98
2022-12-03T15:05:41.250Z,19.35
2022-12-03T15:10:43.897Z,19.45
2022-12-03T15:15:46.500Z,20.38
2022-12-03T15:20:49.873Z,20.70
2022-12-03T15:25:52.416Z,19.48
2022-12-03T15:30:55.168Z,18.85
2022-12-03T15:35:58.074Z,20.42
2022-12-03T15:41:21.206Z,20.27
2022-12-03T15:46:24.177Z,22.48
2022-12-03T15:51:27.021Z,27.20
2022-12-03T15:56:29.656Z,21.85
2022-12-03T16:01:32.585Z,21.92
2022-12-03T16:06:35.294Z,21.13
2022-12-03T16:11:38.265Z,21.17
2022-12-03T16:16:41.399Z,20.83
2022-12-03T16:21:43.981Z,24.60
2022-12-03T16:26:46.828Z,22.02
2022-12-03T16:31:49.491Z,24.95
2022-12-03T16:36:55.647Z,25.25
2022-12-03T16:41:58.407Z,23.45
2022-12-03T16:47:01.658Z,23.00
2022-12-03T16:52:04.329Z,22.33
2022-12-03T16:57:07.129Z,24.50
2022-12-03T17:02:10.968Z,24.90
2022-12-03T17:07:13.631Z,24.70
2022-12-03T17:12:16.481Z,26.05
2022-12-03T17:17:19.101Z,25.92
2022-12-03T17:22:22.044Z,24.83
2022-12-03T17:27:25.387Z,23.75
2022-12-03T17:32:28.642Z,24.52
2022-12-03T17:37:31.267Z,22.45
2022-12-03T17:42:33.888Z,23.48
2022-12-03T17:47:36.516Z,23.50
2022-12-03T17:52:39.148Z,22.10
2022-12-03T17:57:42.446Z,22.88
2022-12-03T18:02:45.297Z,23.67
2022-12-03T18:07:48.142Z,22.75
2022-12-03T18:12:50.878Z,23.85
2022-12-03T18:17:53.575Z,25.35
2022-12-03T18:22:59.490Z,23.70
2022-12-03T18:28:02.938Z,24.88
2022-12-03T18:33:05.648Z,25.40
2022-12-03T18:38:12.191Z,24.45
2022-12-03T18:43:15.780Z,24.48
2022-12-03T18:48:19.264Z,25.67
2022-12-03T18:53:23.943Z,24.90
2022-12-03T18:58:26.609Z,26.20
2022-12-03T19:03:29.417Z,27.60
2022-12-03T19:08:33.374Z,29.40
2022-12-03T19:13:36.086Z,26.90
2022-12-03T19:18:41.745Z,28.35
2022-12-03T19:24:15.985Z,27.00
2022-12-03T19:29:11.015Z,26.65
2022-12-03T19:34:13.694Z,24.88
2022-12-03T19:39:16.406Z,26.02
2022-12-03T19:44:19.330Z,26.10
2022-12-03T19:49:22.544Z,27.35
2022-12-03T19:54:25.306Z,26.58
2022-12-03T19:59:27.912Z,26.92
2022-12-03T20:04:30.456Z,26.33
2022-12-03T20:09:33.064Z,27.10
2022-12-03T20:14:35.633Z,28.20
2022-12-03T20:19:38.358Z,25.80
2022-12-03T20:24:41.049Z,27.58
2022-12-03T20:29:43.770Z,27.42
2022-12-03T20:34:46.574Z,25.48
2022-12-03T20:39:55.674Z,27.27
2022-12-03T20:44:58.550Z,25.52
2022-12-03T20:50:01.562Z,27.02
2022-12-03T20:55:04.328Z,27.42
2022-12-03T21:00:07.227Z,26.73
2022-12-03T21:05:09.908Z,25.92
2022-12-03T21:10:32.509Z,27.95
2022-12-03T21:15:35.104Z,26.97
2022-12-03T21:20:45.513Z,27.08
2022-12-03T21:25:48.108Z,27.08
2022-12-03T21:30:50.733Z,27.33
2022-12-03T21:35:54.875Z,27.88
2022-12-03T21:40:57.954Z,27.30
2022-12-03T21:47:12.752Z,27.25
2022-12-03T21:51:31.557Z,30.23
2022-12-03T21:56:34.334Z,28.38
2022-12-03T22:01:37.057Z,28.70
2022-12-03T22:06:40.262Z,27.75
2022-12-03T22:11:42.942Z,28.33
2022-12-03T22:16:45.967Z,27.23
2022-12-03T22:21:50.749Z,27.58
2022-12-03T22:26:55.062Z,27.95
2022-12-03T22:31:57.899Z,27.85
2022-12-03T22:37:00.522Z,28.48
2022-12-03T22:42:03.346Z,29.25
2022-12-03T22:47:06.153Z,28.58
2022-12-03T22:52:08.827Z,28.33
2022-12-03T22:57:11.771Z,28.63
2022-12-03T23:02:14.507Z,28.90
2022-12-03T23:07:19.880Z,28.70
2022-12-03T23:12:22.725Z,30.65
2022-12-03T23:17:33.033Z,30.20
2022-12-03T23:22:35.809Z,30.05
2022-12-03T23:27:38.672Z,29.52
2022-12-03T23:32:42.760Z,30.58
2022-12-03T23:37:45.535Z,30.75
2022-12-03T23:42:48.369Z,32.13
2022-12-03T23:47:56.580Z,31.05
2022-12-03T23:53:03.843Z,31.27
2022-12-03T23:58:07.497Z,30.67
